Time;durP1;ratioP1;P1;durP2;ratioP2;P2;SDS_P1;SDS_P2;PMS_P1;PMS_P2;Temp;Humidity;BMP_temperature;BMP_pressure;BME280_temperature;BME280_humidity;BME280_pressure;Samples;Min_cycle;Max_cycle;Signal;HPM_P1;HPM_P2
2023/04/02 00:01:05;;;;;;;16.25;2.75;;;;;;;;;;5052824;28;20486;-73
2023/04/02 00:03:41;;;;;;;13.02;2.00;;;;;;;;;;5062821;28;20352;-72
2023/04/02 00:06:33;;;;;;;15.10;2.53;;;;;;;;;;5051262;28;20387;-73
2023/04/02 00:09:23;;;;;;;14.45;1.95;;;;;;;;;;5051259;28;20108;-74
2023/04/02 00:11:54;;;;;;;7.50;2.00;;;;;;;;;;5038517;28;20030;-73
2023/04/02 00:14:34;;;;;;;11.15;2.17;;;;;;;;;;5051350;28;20076;-73
2023/04/02 00:17:01;;;;;;;15.38;2.28;;;;;;;;;;5051375;28;20032;-74
2023/04/02 00:19:33;;;;;;;14.38;2.70;;;;;;;;;;5051271;28;20025;-73
2023/04/02 00:22:00;;;;;;;14.57;2.30;;;;;;;;;;5050926;28;20029;-73
2023/04/02 00:24:26;;;;;;;9.70;1.92;;;;;;;;;;5051137;28;20021;-73
2023/04/02 00:26:53;;;;;;;17.15;2.08;;;;;;;;;;5051213;28;20025;-74
2023/04/02 00:29:19;;;;;;;11.05;2.13;;;;;;;;;;5051269;28;20040;-72
2023/04/02 00:31:50;;;;;;;8.93;2.00;;;;;;;;;;5050968;28;20029;-73
2023/04/02 00:34:28;;;;;;;11.73;2.20;;;;;;;;;;5051028;28;20116;-73
2023/04/02 00:36:54;;;;;;;9.15;2.53;;;;;;;;;;5051048;28;20036;-74
2023/04/02 00:39:23;;;;;;;14.55;2.67;;;;;;;;;;5051053;28;20029;-73
2023/04/02 00:41:53;;;;;;;7.47;1.90;;;;;;;;;;5051224;28;20474;-72
2023/04/02 00:44:20;;;;;;;13.32;2.15;;;;;;;;;;5054668;28;20021;-73
2023/04/02 00:46:48;;;;;;;12.05;2.22;;;;;;;;;;5054732;28;20104;-74
2023/04/02 00:49:18;;;;;;;11.05;1.90;;;;;;;;;;5054628;28;20390;-73
2023/04/02 00:51:53;;;;;;;9.23;1.83;;;;;;;;;;5054461;28;20033;-73
2023/04/02 00:54:21;;;;;;;12.10;2.30;;;;;;;;;;5054542;28;20082;-73
2023/04/02 00:56:48;;;;;;;10.75;1.92;;;;;;;;;;5054318;28;20513;-73
2023/04/02 00:59:17;;;;;;;15.05;2.25;;;;;;;;;;5054266;28;20420;-74
2023/04/02 01:01:44;;;;;;;10.25;2.63;;;;;;;;;;5054314;28;20025;-73
2023/04/02 01:04:26;;;;;;;13.35;2.10;;;;;;;;;;5054285;28;20086;-73
2023/04/02 01:06:53;;;;;;;20.70;1.92;;;;;;;;;;5054402;28;20112;-74
2023/04/02 01:09:43;;;;;;;8.80;2.00;;;;;;;;;;5054249;28;20029;-73
2023/04/02 01:12:19;;;;;;;14.98;2.50;;;;;;;;;;5054079;28;20020;-73
2023/04/02 01:15:04;;;;;;;14.15;2.28;;;;;;;;;;5054394;28;20047;-74
2023/04/02 01:17:36;;;;;;;12.85;2.17;;;;;;;;;;5054140;28;20104;-72
2023/04/02 01:20:21;;;;;;;9.75;1.88;;;;;;;;;;5054078;28;20135;-74
2023/04/02 01:22:50;;;;;;;16.55;2.30;;;;;;;;;;5035829;28;20048;-74
2023/04/02 01:25:19;;;;;;;14.00;2.30;;;;;;;;;;5053979;28;20355;-72
2023/04/02 01:27:50;;;;;;;13.30;2.17;;;;;;;;;;5053722;28;20163;-72
2023/04/02 01:30:17;;;;;;;10.10;2.15;;;;;;;;;;5053776;28;20505;-72
2023/04/02 01:32:43;;;;;;;13.52;2.40;;;;;;;;;;5053621;28;20031;-73
2023/04/02 01:35:10;;;;;;;20.98;2.42;;;;;;;;;;5053736;28;20021;-74
2023/04/02 01:37:38;;;;;;;11.05;2.15;;;;;;;;;;5053564;28;20083;-72
2023/04/02 01:40:16;;;;;;;18.23;2.47;;;;;;;;;;5053611;28;20056;-72
2023/04/02 01:43:03;;;;;;;15.57;2.20;;;;;;;;;;5052509;28;20028;-73
2023/04/02 01:45:29;;;;;;;12.63;2.28;;;;;;;;;;5053464;28;20025;-74
2023/04/02 01:47:55;;;;;;;7.45;1.92;;;;;;;;;;5053499;28;20025;-73
2023/04/02 01:50:24;;;;;;;12.27;2.50;;;;;;;;;;5053502;28;20437;-73
2023/04/02 01:52:51;;;;;;;13.55;2.03;;;;;;;;;;5053156;28;20053;-73
2023/04/02 01:55:20;;;;;;;10.65;2.28;;;;;;;;;;5052728;28;20083;-73
2023/04/02 01:57:47;;;;;;;13.57;2.28;;;;;;;;;;5053235;28;20499;-73
2023/04/02 02:00:14;;;;;;;10.90;2.00;;;;;;;;;;5053356;28;20108;-73
2023/04/02 02:02:41;;;;;;;15.55;2.20;;;;;;;;;;5052944;28;20086;-73
2023/04/02 02:05:15;;;;;;;11.60;2.10;;;;;;;;;;5053057;28;20029;-74
2023/04/02 02:07:41;;;;;;;11.43;2.05;;;;;;;;;;5053112;28;20052;-74
2023/04/02 02:10:10;;;;;;;13.30;2.05;;;;;;;;;;5053114;28;20025;-73
2023/04/02 02:12:36;;;;;;;22.27;8.32;;;;;;;;;;5052858;28;20051;-73
2023/04/02 02:15:02;;;;;;;20.75;2.92;;;;;;;;;;5053153;28;20475;-72
2023/04/02 02:17:33;;;;;;;14.18;2.25;;;;;;;;;;5052980;28;20036;-73
2023/04/02 02:19:59;;;;;;;8.65;2.15;;;;;;;;;;5053364;28;20112;-73
2023/04/02 02:22:37;;;;;;;13.38;2.00;;;;;;;;;;5052636;28;20017;-74
2023/04/02 02:25:06;;;;;;;10.20;2.55;;;;;;;;;;5052951;28;20055;-73
2023/04/02 02:27:44;;;;;;;12.25;2.17;;;;;;;;;;5052469;28;20029;-73
2023/04/02 02:30:10;;;;;;;12.93;2.22;;;;;;;;;;5052859;28;20052;-73
2023/04/02 02:32:38;;;;;;;12.52;2.13;;;;;;;;;;5052404;28;20509;-73
2023/04/02 02:35:04;;;;;;;8.38;1.80;;;;;;;;;;5052666;28;20170;-74
2023/04/02 02:37:33;;;;;;;16.17;2.38;;;;;;;;;;5052481;28;20032;-73
2023/04/02 02:40:00;;;;;;;12.70;2.22;;;;;;;;;;5052430;28;20082;-72
2023/04/02 02:42:36;;;;;;;10.98;2.10;;;;;;;;;;5052551;28;20397;-72
2023/04/02 02:45:05;;;;;;;15.25;2.50;;;;;;;;;;5052418;28;20025;-72
2023/04/02 02:47:33;;;;;;;14.70;2.08;;;;;;;;;;5052392;28;20021;-74
2023/04/02 02:50:01;;;;;;;12.68;1.98;;;;;;;;;;5052379;28;20037;-72
2023/04/02 02:52:28;;;;;;;7.28;1.90;;;;;;;;;;5068899;28;20040;-72
2023/04/02 02:55:03;;;;;;;15.88;2.63;;;;;;;;;;5071875;28;20086;-72
2023/04/02 02:57:35;;;;;;;8.73;1.83;;;;;;;;;;5052504;28;20059;-73
2023/04/02 03:00:05;;;;;;;7.80;1.77;;;;;;;;;;5051993;28;20025;-72
2023/04/02 03:02:34;;;;;;;11.60;2.00;;;;;;;;;;5052090;28;20025;-72
2023/04/02 03:05:03;;;;;;;11.45;1.92;;;;;;;;;;5051609;28;20451;-72
2023/04/02 03:07:30;;;;;;;10.52;2.15;;;;;;;;;;5051330;28;20032;-71
2023/04/02 03:10:16;;;;;;;12.05;1.88;;;;;;;;;;5051919;28;20082;-72
2023/04/02 03:12:52;;;;;;;16.08;2.25;;;;;;;;;;5051951;28;20029;-72
2023/04/02 03:15:18;;;;;;;7.80;1.80;;;;;;;;;;5052148;28;20031;-72
2023/04/02 03:17:50;;;;;;;12.50;1.80;;;;;;;;;;5071687;28;20099;-73
2023/04/02 03:20:36;;;;;;;10.13;1.80;;;;;;;;;;5071810;28;20490;-72
2023/04/02 03:23:06;;;;;;;8.70;1.88;;;;;;;;;;5071705;28;20028;-73
2023/04/02 03:25:39;;;;;;;9.35;2.00;;;;;;;;;;5072160;28;20081;-72
2023/04/02 03:28:07;;;;;;;10.63;1.73;;;;;;;;;;5071871;28;20398;-72
2023/04/02 03:30:39;;;;;;;13.93;2.25;;;;;;;;;;5071481;28;20090;-72
2023/04/02 03:33:08;;;;;;;13.15;2.38;;;;;;;;;;5071355;28;20031;-72
2023/04/02 03:35:40;;;;;;;9.65;2.35;;;;;;;;;;5071792;28;20089;-71
2023/04/02 03:38:05;;;;;;;10.52;2.10;;;;;;;;;;5071532;28;20363;-72
2023/04/02 03:40:34;;;;;;;6.43;1.65;;;;;;;;;;5071615;28;20032;-72
2023/04/02 03:43:11;;;;;;;12.45;2.15;;;;;;;;;;5071285;28;20078;-73
2023/04/02 03:45:40;;;;;;;11.98;2.05;;;;;;;;;;5071672;28;20025;-71
2023/04/02 03:48:16;;;;;;;10.02;1.80;;;;;;;;;;5071379;28;20363;-72
2023/04/02 03:50:54;;;;;;;9.52;2.00;;;;;;;;;;5071552;28;20063;-72
2023/04/02 03:53:23;;;;;;;8.90;2.22;;;;;;;;;;5071230;28;20031;-72
2023/04/02 03:55:50;;;;;;;12.77;2.28;;;;;;;;;;5071560;28;20024;-72
2023/04/02 03:58:25;;;;;;;13.52;2.60;;;;;;;;;;5071390;28;20489;-72
2023/04/02 04:00:51;;;;;;;15.98;2.63;;;;;;;;;;5071359;28;20032;-72
2023/04/02 04:03:26;;;;;;;11.60;3.80;;;;;;;;;;5071161;28;20025;-71
2023/04/02 04:05:55;;;;;;;9.75;2.70;;;;;;;;;;5071647;28;20355;-72
2023/04/02 04:08:25;;;;;;;8.40;2.72;;;;;;;;;;5071530;28;20382;-72
2023/04/02 04:10:52;;;;;;;11.15;2.80;;;;;;;;;;5071463;28;20032;-71
2023/04/02 04:13:20;;;;;;;11.10;3.35;;;;;;;;;;5071121;28;20035;-71
2023/04/02 04:15:59;;;;;;;16.85;3.83;;;;;;;;;;5071282;28;20568;-71
2023/04/02 04:19:02;;;;;;;20.70;3.83;;;;;;;;;;5074156;28;20647;-72
2023/04/02 04:21:29;;;;;;;12.85;3.55;;;;;;;;;;5023375;28;20058;-71
2023/04/02 04:23:56;;;;;;;9.52;2.20;;;;;;;;;;5074809;28;20040;-71
2023/04/02 04:26:30;;;;;;;7.07;2.15;;;;;;;;;;5075007;28;20035;-72
2023/04/02 04:29:14;;;;;;;8.65;2.25;;;;;;;;;;5075173;28;20041;-72
2023/04/02 04:31:45;;;;;;;9.90;2.05;;;;;;;;;;5075372;28;20032;-72
2023/04/02 04:34:15;;;;;;;11.98;2.45;;;;;;;;;;5074785;28;20024;-72
2023/04/02 04:36:53;;;;;;;8.63;2.15;;;;;;;;;;5074698;28;20509;-72
2023/04/02 04:39:23;;;;;;;9.75;2.80;;;;;;;;;;5074860;28;20027;-73
2023/04/02 04:41:49;;;;;;;8.68;2.20;;;;;;;;;;5074270;28;20028;-74
2023/04/02 04:44:23;;;;;;;10.02;2.45;;;;;;;;;;5075247;28;20073;-71
2023/04/02 04:46:58;;;;;;;9.07;2.23;;;;;;;;;;5074344;28;20028;-72
2023/04/02 04:49:27;;;;;;;7.28;1.98;;;;;;;;;;5069850;28;20101;-74
2023/04/02 04:52:14;;;;;;;9.57;1.95;;;;;;;;;;5059624;28;20505;-75
2023/04/02 04:54:41;;;;;;;8.75;2.45;;;;;;;;;;5065801;28;20486;-73
2023/04/02 04:57:13;;;;;;;12.77;2.38;;;;;;;;;;5062585;28;20048;-74
2023/04/02 04:59:44;;;;;;;11.07;2.80;;;;;;;;;;5063486;28;20397;-75
2023/04/02 05:02:13;;;;;;;12.55;2.97;;;;;;;;;;5063177;28;20095;-73
2023/04/02 05:04:44;;;;;;;11.15;2.65;;;;;;;;;;5069946;28;20017;-74
2023/04/02 05:07:15;;;;;;;14.68;3.03;;;;;;;;;;5068520;28;20029;-74
2023/04/02 05:09:43;;;;;;;7.97;2.47;;;;;;;;;;5066327;28;20033;-74
2023/04/02 05:12:09;;;;;;;10.02;2.80;;;;;;;;;;5063645;28;20028;-74
2023/04/02 05:14:42;;;;;;;11.15;2.30;;;;;;;;;;5064116;28;20477;-73
2023/04/02 05:17:14;;;;;;;9.23;2.30;;;;;;;;;;5063208;28;20056;-73
2023/04/02 05:19:47;;;;;;;8.23;2.22;;;;;;;;;;5065813;28;20114;-75
2023/04/02 05:22:17;;;;;;;18.42;4.28;;;;;;;;;;5064345;28;20063;-75
2023/04/02 05:24:46;;;;;;;10.52;2.60;;;;;;;;;;5066117;28;20021;-75
2023/04/02 05:27:18;;;;;;;11.50;2.25;;;;;;;;;;5065735;28;20034;-74
2023/04/02 05:29:46;;;;;;;11.25;1.77;;;;;;;;;;5061966;28;20437;-74
2023/04/02 05:32:12;;;;;;;10.77;2.15;;;;;;;;;;5067072;28;20025;-73
2023/04/02 05:34:40;;;;;;;9.07;2.10;;;;;;;;;;5067135;28;20034;-73
2023/04/02 05:37:08;;;;;;;7.75;1.85;;;;;;;;;;5066118;28;20107;-74
2023/04/02 05:39:34;;;;;;;9.07;1.65;;;;;;;;;;5062969;28;20020;-71
2023/04/02 05:42:02;;;;;;;7.82;1.77;;;;;;;;;;5060384;28;20506;-72
2023/04/02 05:44:32;;;;;;;9.70;2.33;;;;;;;;;;5063588;28;20063;-71
2023/04/02 05:47:01;;;;;;;8.85;1.83;;;;;;;;;;5061928;28;20078;-71
2023/04/02 05:49:36;;;;;;;9.75;1.98;;;;;;;;;;5063139;28;20056;-72
2023/04/02 05:52:03;;;;;;;14.82;3.20;;;;;;;;;;5067515;28;20040;-74
2023/04/02 05:54:35;;;;;;;7.72;2.03;;;;;;;;;;5062074;28;20032;-72
2023/04/02 05:57:09;;;;;;;7.80;2.10;;;;;;;;;;5066168;28;20069;-72
2023/04/02 05:59:41;;;;;;;12.70;2.80;;;;;;;;;;5064343;28;20029;-74
2023/04/02 06:02:25;;;;;;;14.02;2.40;;;;;;;;;;5064770;28;20101;-73
2023/04/02 06:05:00;;;;;;;9.88;1.70;;;;;;;;;;5064493;28;20029;-73
2023/04/02 06:07:32;;;;;;;8.13;1.75;;;;;;;;;;5064748;28;20020;-73
2023/04/02 06:10:17;;;;;;;9.73;1.88;;;;;;;;;;5061634;28;20182;-73
2023/04/02 06:12:43;;;;;;;15.27;1.90;;;;;;;;;;5063992;28;20036;-73
2023/04/02 06:15:17;;;;;;;9.00;2.00;;;;;;;;;;5067252;28;20048;-73
2023/04/02 06:18:05;;;;;;;7.10;1.52;;;;;;;;;;5063689;28;20080;-72
2023/04/02 06:20:32;;;;;;;13.27;1.80;;;;;;;;;;5064108;28;20033;-72
2023/04/02 06:23:13;;;;;;;8.35;1.80;;;;;;;;;;5064293;28;20028;-73
2023/04/02 06:25:42;;;;;;;7.93;1.70;;;;;;;;;;5058471;28;20390;-76
2023/04/02 06:28:13;;;;;;;6.60;1.63;;;;;;;;;;5058628;28;20030;-72
2023/04/02 06:30:40;;;;;;;10.55;2.38;;;;;;;;;;5052988;28;20493;-72
2023/04/02 06:33:07;;;;;;;8.43;1.65;;;;;;;;;;5052696;28;20199;-72
2023/04/02 06:35:35;;;;;;;8.18;1.70;;;;;;;;;;5052827;28;20025;-70
2023/04/02 06:38:02;;;;;;;15.40;1.90;;;;;;;;;;5052578;28;20380;-72
2023/04/02 06:40:28;;;;;;;12.65;2.35;;;;;;;;;;5052490;28;20372;-72
2023/04/02 06:42:58;;;;;;;8.27;1.70;;;;;;;;;;5052907;28;20066;-70
2023/04/02 06:45:29;;;;;;;14.80;2.53;;;;;;;;;;5052412;28;20021;-73
2023/04/02 06:47:56;;;;;;;14.77;1.98;;;;;;;;;;5052402;28;20495;-72
2023/04/02 06:50:25;;;;;;;10.82;1.70;;;;;;;;;;5052396;28;20363;-71
2023/04/02 06:52:56;;;;;;;6.93;1.60;;;;;;;;;;5052348;28;20021;-72
2023/04/02 06:55:37;;;;;;;9.88;1.65;;;;;;;;;;5052272;28;20036;-72
2023/04/02 06:58:03;;;;;;;11.77;1.92;;;;;;;;;;5052128;28;20087;-73
2023/04/02 07:00:32;;;;;;;10.65;3.08;;;;;;;;;;5052365;28;20029;-74
2023/04/02 07:02:59;;;;;;;13.75;1.75;;;;;;;;;;5060043;28;20031;-72
2023/04/02 07:05:25;;;;;;;8.13;2.08;;;;;;;;;;5052493;28;20025;-72
2023/04/02 07:07:51;;;;;;;12.73;2.13;;;;;;;;;;5061684;28;20466;-70
2023/04/02 07:10:19;;;;;;;5.28;1.35;;;;;;;;;;5072034;28;20032;-72
2023/04/02 07:12:45;;;;;;;12.45;2.30;;;;;;;;;;5071482;28;20539;-72
2023/04/02 07:15:15;;;;;;;15.05;1.75;;;;;;;;;;5071765;28;20031;-72
2023/04/02 07:17:42;;;;;;;9.13;1.80;;;;;;;;;;5071941;28;20081;-72
2023/04/02 07:20:20;;;;;;;10.15;1.55;;;;;;;;;;5071738;28;20024;-72
2023/04/02 07:22:46;;;;;;;9.18;1.70;;;;;;;;;;5071312;28;20028;-72
2023/04/02 07:25:12;;;;;;;9.57;1.42;;;;;;;;;;5071775;28;20028;-73
2023/04/02 07:27:38;;;;;;;10.27;1.83;;;;;;;;;;5071659;28;20393;-72
2023/04/02 07:30:04;;;;;;;6.63;1.63;;;;;;;;;;5071929;28;20040;-71
2023/04/02 07:32:30;;;;;;;11.38;1.77;;;;;;;;;;5071341;28;20020;-72
2023/04/02 07:34:56;;;;;;;9.13;1.90;;;;;;;;;;5071806;28;20173;-72
2023/04/02 07:37:22;;;;;;;8.40;1.63;;;;;;;;;;5071494;28;20024;-72
2023/04/02 07:39:48;;;;;;;7.60;1.40;;;;;;;;;;5071825;28;20099;-72
2023/04/02 07:42:14;;;;;;;10.70;1.73;;;;;;;;;;5071700;28;20382;-70
2023/04/02 07:44:40;;;;;;;9.75;2.72;;;;;;;;;;5071321;28;20100;-72
2023/04/02 07:47:07;;;;;;;6.93;1.45;;;;;;;;;;5071336;28;20024;-71
2023/04/02 07:49:33;;;;;;;9.10;1.75;;;;;;;;;;5071768;28;20051;-72
2023/04/02 07:51:59;;;;;;;12.38;1.98;;;;;;;;;;5054033;28;20035;-71
2023/04/02 07:54:26;;;;;;;13.68;1.98;;;;;;;;;;5075814;28;20451;-71
2023/04/02 07:56:52;;;;;;;10.02;1.40;;;;;;;;;;5075419;28;20111;-72
2023/04/02 07:59:18;;;;;;;12.82;1.70;;;;;;;;;;5075055;28;20420;-71
2023/04/02 08:01:45;;;;;;;8.65;1.38;;;;;;;;;;5075413;28;20098;-70
2023/04/02 08:04:18;;;;;;;9.88;1.88;;;;;;;;;;5075473;28;20390;-71
2023/04/02 08:06:44;;;;;;;8.27;1.50;;;;;;;;;;5075461;28;20017;-71
2023/04/02 08:09:10;;;;;;;8.90;1.90;;;;;;;;;;5075336;28;20027;-73
2023/04/02 08:11:36;;;;;;;6.40;1.40;;;;;;;;;;5075426;28;20075;-72
2023/04/02 08:14:02;;;;;;;9.23;1.73;;;;;;;;;;5075339;28;20029;-73
2023/04/02 08:16:28;;;;;;;11.73;1.55;;;;;;;;;;5075698;28;20029;-74
2023/04/02 08:18:54;;;;;;;8.43;2.42;;;;;;;;;;5075550;28;20436;-73
2023/04/02 08:21:20;;;;;;;11.02;1.73;;;;;;;;;;5075350;28;20061;-74
2023/04/02 08:23:46;;;;;;;9.93;1.67;;;;;;;;;;5075100;28;20020;-72
2023/04/02 08:26:16;;;;;;;7.18;1.50;;;;;;;;;;5078938;28;20418;-74
2023/04/02 08:28:42;;;;;;;7.60;1.50;;;;;;;;;;5083175;28;20099;-77
2023/04/02 08:31:08;;;;;;;6.68;1.50;;;;;;;;;;5077211;28;20424;-77
2023/04/02 08:33:34;;;;;;;5.68;1.40;;;;;;;;;;5074746;28;20025;-75
2023/04/02 08:36:00;;;;;;;8.88;1.90;;;;;;;;;;5074238;28;20514;-72
2023/04/02 08:38:26;;;;;;;3.95;1.13;;;;;;;;;;5074085;28;20035;-74
2023/04/02 08:40:54;;;;;;;5.57;1.48;;;;;;;;;;5073846;28;20548;-73
2023/04/02 08:43:20;;;;;;;12.18;2.30;;;;;;;;;;5073456;28;20508;-74
2023/04/02 08:45:55;;;;;;;13.07;2.28;;;;;;;;;;5073738;28;20024;-74
2023/04/02 08:48:22;;;;;;;6.03;1.40;;;;;;;;;;5073949;28;20036;-75
2023/04/02 08:50:49;;;;;;;8.82;1.40;;;;;;;;;;5073682;28;20074;-75
2023/04/02 08:53:17;;;;;;;3.53;1.45;;;;;;;;;;5073366;28;20040;-73
2023/04/02 08:55:49;;;;;;;5.38;1.40;;;;;;;;;;5074165;28;20556;-74
2023/04/02 08:58:34;;;;;;;8.63;1.90;;;;;;;;;;5072824;28;20497;-74
2023/04/02 09:01:00;;;;;;;;;;;;;;;;;;5073784;28;20021;-73
2023/04/02 09:03:44;;;;;;;9.52;1.50;;;;;;;;;;5073074;28;19919;-73
2023/04/02 09:06:12;;;;;;;4.45;1.45;;;;;;;;;;5073657;28;20518;-73
2023/04/02 09:08:39;;;;;;;8.48;1.90;;;;;;;;;;5071346;28;20020;-73
2023/04/02 09:11:18;;;;;;;6.50;1.13;;;;;;;;;;5073232;28;20032;-73
2023/04/02 09:13:46;;;;;;;4.35;1.45;;;;;;;;;;5063417;28;20060;-73
2023/04/02 09:16:14;;;;;;;8.98;1.30;;;;;;;;;;5053205;28;20033;-74
2023/04/02 09:18:40;;;;;;;5.65;1.30;;;;;;;;;;5054178;28;20025;-73
2023/04/02 09:21:27;;;;;;;4.47;1.10;;;;;;;;;;5054370;28;20510;-74
2023/04/02 09:23:54;;;;;;;5.63;1.17;;;;;;;;;;5042476;28;20441;-73
2023/04/02 09:26:22;;;;;;;4.93;1.38;;;;;;;;;;5052882;28;20021;-73
2023/04/02 09:28:50;;;;;;;4.43;1.20;;;;;;;;;;5052694;28;20025;-75
2023/04/02 09:31:20;;;;;;;5.13;1.33;;;;;;;;;;5053017;28;20470;-72
2023/04/02 09:33:47;;;;;;;3.10;0.90;;;;;;;;;;5052746;28;20037;-72
2023/04/02 09:36:34;;;;;;;6.18;1.10;;;;;;;;;;5052312;28;20035;-74
2023/04/02 09:39:20;;;;;;;8.40;1.52;;;;;;;;;;5052567;28;20029;-73
2023/04/02 09:41:46;;;;;;;3.35;0.95;;;;;;;;;;5051962;28;20116;-72
2023/04/02 09:44:20;;;;;;;4.25;0.98;;;;;;;;;;5052395;28;20025;-70
2023/04/02 09:46:47;;;;;;;5.55;1.15;;;;;;;;;;5052552;28;20032;-71
2023/04/02 09:49:16;;;;;;;5.40;1.30;;;;;;;;;;5052598;28;20100;-72
2023/04/02 09:51:42;;;;;;;9.88;1.30;;;;;;;;;;5034478;28;20121;-75
2023/04/02 09:54:13;;;;;;;10.25;2.10;;;;;;;;;;5052486;28;20037;-72
2023/04/02 09:56:40;;;;;;;6.97;2.00;;;;;;;;;;5052231;28;20044;-72
2023/04/02 09:59:16;;;;;;;7.72;1.92;;;;;;;;;;5052534;28;20025;-74
2023/04/02 10:01:55;;;;;;;6.18;1.77;;;;;;;;;;5052112;28;20032;-72
2023/04/02 10:04:35;;;;;;;9.48;1.98;;;;;;;;;;5034646;28;20029;-73
2023/04/02 10:07:01;;;;;;;9.63;2.03;;;;;;;;;;5052382;28;20037;-72
2023/04/02 10:09:29;;;;;;;10.77;2.20;;;;;;;;;;5052334;28;20027;-74
2023/04/02 10:11:56;;;;;;;12.10;1.77;;;;;;;;;;5052146;28;20043;-71
2023/04/02 10:14:25;;;;;;;8.30;1.30;;;;;;;;;;5051931;28;20116;-71
2023/04/02 10:16:57;;;;;;;4.60;1.45;;;;;;;;;;5052011;28;20079;-72
2023/04/02 10:19:29;;;;;;;14.57;2.13;;;;;;;;;;5052058;28;20112;-72
2023/04/02 10:21:56;;;;;;;6.80;1.55;;;;;;;;;;5052370;28;20021;-72
2023/04/02 10:24:22;;;;;;;6.20;1.70;;;;;;;;;;5053046;28;20028;-71
2023/04/02 10:26:57;;;;;;;6.28;1.50;;;;;;;;;;5060833;28;20049;-71
2023/04/02 10:29:33;;;;;;;6.57;1.75;;;;;;;;;;5075402;28;20051;-72
2023/04/02 10:31:59;;;;;;;5.35;1.30;;;;;;;;;;5070031;28;20028;-73
2023/04/02 10:34:38;;;;;;;6.07;1.55;;;;;;;;;;5070413;28;20036;-72
2023/04/02 10:37:28;;;;;;;7.03;2.78;;;;;;;;;;5070057;28;20505;-73
2023/04/02 10:39:57;;;;;;;6.40;2.03;;;;;;;;;;5066522;28;20362;-73
2023/04/02 10:42:34;;;;;;;5.90;1.40;;;;;;;;;;5069150;28;20013;-73
2023/04/02 10:45:18;;;;;;;5.20;1.20;;;;;;;;;;5070181;28;20024;-73
2023/04/02 10:47:57;;;;;;;3.22;1.08;;;;;;;;;;5070473;28;20187;-72
2023/04/02 10:50:31;;;;;;;5.93;1.42;;;;;;;;;;5069341;28;20017;-73
2023/04/02 10:53:05;;;;;;;12.23;3.77;;;;;;;;;;5069503;28;20032;-73
2023/04/02 10:55:31;;;;;;;;;;;;;;;;;;5070517;28;20100;-73
2023/04/02 10:57:59;;;;;;;4.25;1.60;;;;;;;;;;5070136;28;20345;-72
2023/04/02 11:00:30;;;;;;;7.25;2.10;;;;;;;;;;5069875;28;20025;-72
2023/04/02 11:03:15;;;;;;;8.27;1.60;;;;;;;;;;5069216;28;20513;-71
2023/04/02 11:05:43;;;;;;;10.20;2.20;;;;;;;;;;5068302;28;20059;-73
2023/04/02 11:08:20;;;;;;;5.70;1.60;;;;;;;;;;5069546;28;20490;-74
2023/04/02 11:10:57;;;;;;;6.35;1.30;;;;;;;;;;5068679;28;20536;-73
2023/04/02 11:13:29;;;;;;;4.03;1.08;;;;;;;;;;5067651;28;20025;-74
2023/04/02 11:15:55;;;;;;;7.97;1.90;;;;;;;;;;5068226;28;20450;-74
2023/04/02 11:18:34;;;;;;;5.05;0.98;;;;;;;;;;5069554;28;20043;-74
2023/04/02 11:21:01;;;;;;;3.85;1.20;;;;;;;;;;5071280;28;20020;-72
2023/04/02 11:23:29;;;;;;;5.47;1.63;;;;;;;;;;5071666;28;20052;-74
2023/04/02 11:26:13;;;;;;;3.33;1.33;;;;;;;;;;5071784;28;20025;-73
2023/04/02 11:28:40;;;;;;;4.55;1.75;;;;;;;;;;5071493;28;20025;-72
2023/04/02 11:31:06;;;;;;;5.32;1.83;;;;;;;;;;5071795;28;20025;-72
2023/04/02 11:33:32;;;;;;;8.25;2.33;;;;;;;;;;5071439;28;20036;-73
2023/04/02 11:35:58;;;;;;;9.75;1.58;;;;;;;;;;5071493;28;20039;-72
2023/04/02 11:38:24;;;;;;;7.97;1.17;;;;;;;;;;5071435;28;20024;-72
2023/04/02 11:40:59;;;;;;;8.80;2.05;;;;;;;;;;5071340;28;20033;-72
2023/04/02 11:43:35;;;;;;;7.80;1.88;;;;;;;;;;5071028;28;20048;-72
2023/04/02 11:46:03;;;;;;;8.48;3.10;;;;;;;;;;5071096;28;20070;-72
2023/04/02 11:48:30;;;;;;;9.23;2.20;;;;;;;;;;5055033;28;20021;-72
2023/04/02 11:50:56;;;;;;;6.68;2.40;;;;;;;;;;5051386;28;20032;-72
2023/04/02 11:53:25;;;;;;;8.73;2.75;;;;;;;;;;5052191;28;20021;-72
2023/04/02 11:55:57;;;;;;;5.88;1.83;;;;;;;;;;5071713;28;20032;-72
2023/04/02 11:58:38;;;;;;;4.50;1.10;;;;;;;;;;5057173;28;20043;-72
2023/04/02 12:01:22;;;;;;;4.00;1.63;;;;;;;;;;5051393;28;20490;-73
2023/04/02 12:04:07;;;;;;;3.85;1.00;;;;;;;;;;5064778;28;20073;-72
2023/04/02 12:06:52;;;;;;;5.07;1.00;;;;;;;;;;5070298;28;20067;-72
2023/04/02 12:09:18;;;;;;;4.40;1.20;;;;;;;;;;5051268;28;20044;-72
2023/04/02 12:11:44;;;;;;;5.57;1.40;;;;;;;;;;5051466;28;20100;-72
2023/04/02 12:14:28;;;;;;;5.53;1.73;;;;;;;;;;5070997;28;20096;-72
2023/04/02 12:16:54;;;;;;;7.22;1.10;;;;;;;;;;5071431;28;20033;-72
2023/04/02 12:19:21;;;;;;;2.25;0.90;;;;;;;;;;5071071;28;20028;-77
2023/04/02 12:21:47;;;;;;;3.15;1.05;;;;;;;;;;5070780;28;20043;-72
2023/04/02 12:24:19;;;;;;;3.25;1.05;;;;;;;;;;5071092;28;20390;-71
2023/04/02 12:26:45;;;;;;;2.95;1.20;;;;;;;;;;5070639;28;20053;-72
2023/04/02 12:29:23;;;;;;;3.63;1.25;;;;;;;;;;5071025;28;20025;-72
2023/04/02 12:31:49;;;;;;;2.78;1.02;;;;;;;;;;5070891;28;20028;-71
2023/04/02 12:34:16;;;;;;;5.15;0.98;;;17.10;66.40;;;;;;5070992;28;20107;-71
2023/04/02 12:36:51;;;;;;;3.30;1.10;;;23.00;99.90;;;;;;5070826;28;20100;-72
2023/04/02 12:39:17;;;;;;;6.28;1.10;;;23.20;99.90;;;;;;5073138;28;20066;-72
2023/04/02 12:41:43;;;;;;;4.40;0.95;;;23.10;99.90;;;;;;5074616;28;20111;-76
2023/04/02 12:44:21;;;;;;;3.00;0.80;;;22.80;1.00;;;;;;5074378;28;20107;-73
2023/04/02 12:46:48;;;;;;;3.60;1.00;;;22.80;1.00;;;;;;5074751;28;20032;-72
2023/04/02 12:49:28;;;;;;;2.28;0.93;;;23.10;1.00;;;;;;5074301;28;20482;-73
2023/04/02 12:51:54;;;;;;;3.22;1.00;;;22.50;1.00;;;;;;5074477;28;20103;-76
2023/04/02 12:54:20;;;;;;;1.38;0.57;;;22.20;1.00;;;;;;5074621;28;20032;-75
2023/04/02 12:56:47;;;;;;;4.78;0.80;;;21.90;1.00;;;;;;5074478;28;20025;-72
2023/04/02 12:59:35;;;;;;;1.33;0.70;;;21.80;1.00;;;;;;5073379;28;20024;-76
2023/04/02 13:02:15;;;;;;;2.30;0.80;;;22.20;1.00;;;;;;5074174;28;20689;-77
2023/04/02 13:05:07;;;;;;;2.88;0.77;;;22.10;1.00;;;;;;5074419;28;20021;-74
2023/04/02 13:07:33;;;;;;;4.43;0.98;;;23.10;1.00;;;;;;5070001;28;20051;-75
2023/04/02 13:10:01;;;;;;;4.45;1.63;;;23.30;1.00;;;;;;5074212;28;20033;-74
2023/04/02 13:12:39;;;;;;;3.17;0.98;;;22.90;1.00;;;;;;5074399;28;20414;-74
2023/04/02 13:15:32;;;;;;;3.45;1.40;;;22.60;1.00;;;;;;5074360;28;20020;-74
2023/04/02 13:18:06;;;;;;;3.72;1.10;;;22.60;1.00;;;;;;5074028;28;20362;-76
2023/04/02 13:20:32;;;;;;;;;;;22.60;1.00;;;;;;5074412;28;20027;-74
2023/04/02 13:22:59;;;;;;;2.83;0.77;;;22.30;1.00;;;;;;5074146;28;19952;-74
2023/04/02 13:25:34;;;;;;;5.45;1.58;;;22.50;1.00;;;;;;5074209;28;20020;-75
2023/04/02 13:28:01;;;;;;;2.28;0.85;;;22.80;1.00;;;;;;5053142;28;20506;-76
2023/04/02 13:30:27;;;;;;;2.75;0.90;;;22.50;1.00;;;;;;5053929;28;20129;-75
2023/04/02 13:32:54;;;;;;;5.03;2.15;;;22.80;1.00;;;;;;5052922;28;20024;-75
2023/04/02 13:35:20;;;;;;;3.35;1.25;;;22.20;1.00;;;;;;5052741;28;20029;-73
2023/04/02 13:37:46;;;;;;;2.80;1.17;;;21.30;1.00;;;;;;5053155;28;20025;-75
2023/04/02 13:40:16;;;;;;;2.90;1.20;;;21.20;1.00;;;;;;5053672;28;20056;-75
2023/04/02 13:42:43;;;;;;;7.00;1.00;;;21.70;1.00;;;;;;5053359;28;20478;-74
2023/04/02 13:45:38;;;;;;;1.83;0.80;;;21.70;1.00;;;;;;5053685;28;20075;-73
2023/04/02 13:48:04;;;;;;;1.70;0.70;;;21.90;1.00;;;;;;5053544;28;20021;-73
2023/04/02 13:50:32;;;;;;;5.97;1.55;;;21.30;1.00;;;;;;5053181;28;20021;-74
2023/04/02 13:53:06;;;;;;;2.38;0.85;;;21.60;1.00;;;;;;5053301;28;20032;-75
2023/04/02 13:55:38;;;;;;;2.70;0.80;;;21.80;1.00;;;;;;5053928;28;20029;-73
2023/04/02 13:58:05;;;;;;;2.33;0.82;;;21.80;1.00;;;;;;5053443;28;20048;-72
2023/04/02 14:00:31;;;;;;;2.72;0.75;;;21.80;1.00;;;;;;5053580;28;20036;-73
2023/04/02 14:03:06;;;;;;;3.05;1.10;;;21.50;1.00;;;;;;5053030;28;20305;-73
2023/04/02 14:05:35;;;;;;;1.90;0.70;;;21.40;1.00;;;;;;5053380;28;20024;-73
2023/04/02 14:08:19;;;;;;;2.95;1.00;;;21.90;1.00;;;;;;5053237;28;20027;-75
2023/04/02 14:11:20;;;;;;;4.63;1.20;;;22.00;1.00;;;;;;5053157;28;20027;-74
2023/04/02 14:13:46;;;;;;;2.33;0.73;;;22.00;1.00;;;;;;5053590;28;20079;-74
2023/04/02 14:16:17;;;;;;;4.57;1.92;;;21.90;1.00;;;;;;5053382;28;20029;-74
2023/04/02 14:19:05;;;;;;;7.07;2.22;;;21.70;1.00;;;;;;5052815;28;20100;-72
2023/04/02 14:21:42;;;;;;;8.32;2.85;;;22.00;1.00;;;;;;5052748;28;20032;-75
2023/04/02 14:24:14;;;;;;;3.35;1.10;;;22.20;1.00;;;;;;5052675;28;20020;-72
2023/04/02 14:27:03;;;;;;;2.97;1.15;;;22.10;1.00;;;;;;5052827;28;20021;-71
2023/04/02 14:29:47;;;;;;;2.92;1.00;;;21.90;1.00;;;;;;5052951;28;20497;-71
2023/04/02 14:32:33;;;;;;;2.63;1.08;;;21.70;99.90;;;;;;5052756;28;20390;-70
2023/04/02 14:35:11;;;;;;;2.53;0.98;;;22.10;99.90;;;;;;5034568;28;20431;-71
2023/04/02 14:38:17;;;;;;;3.30;1.10;;;21.70;99.90;;;;;;5052744;28;20025;-72
2023/04/02 14:40:58;;;;;;;3.90;1.13;;;21.50;99.90;;;;;;4972003;28;20122;-72
2023/04/02 14:43:26;;;;;;;4.53;1.38;;;22.00;99.90;;;;;;5050727;28;20013;-73
2023/04/02 14:46:06;;;;;;;4.30;1.30;;;21.50;99.90;;;;;;5052366;28;20017;-73